sensor_id;sensor_type;location;lat;lon;timestamp;temperature;humidity
12225;DHT22;6175;50.956;11.064;2023-02-11T00:01:19;2.70;99.90
12225;DHT22;6175;50.956;11.064;2023-02-11T00:06:14;2.60;99.90
12225;DHT22;6175;50.956;11.064;2023-02-11T00:11:12;2.60;99.90
12225;DHT22;6175;50.956;11.064;2023-02-11T00:16:09;2.70;99.90
12225;DHT22;6175;50.956;11.064;2023-02-11T00:30:57;2.80;99.90
12225;DHT22;6175;50.956;11.064;2023-02-11T00:35:53;2.70;99.90
12225;DHT22;6175;50.956;11.064;2023-02-11T00:48:09;2.90;99.90
12225;DHT22;6175;50.956;11.064;2023-02-11T01:05:21;3.00;99.90
12225;DHT22;6175;50.956;11.064;2023-02-11T01:10:15;3.00;99.90
12225;DHT22;6175;50.956;11.064;2023-02-11T01:15:11;3.00;99.90
12225;DHT22;6175;50.956;11.064;2023-02-11T01:20:10;3.00;99.90
12225;DHT22;6175;50.956;11.064;2023-02-11T01:25:08;3.00;99.90
12225;DHT22;6175;50.956;11.064;2023-02-11T01:27:35;3.00;99.90
12225;DHT22;6175;50.956;11.064;2023-02-11T01:30:02;3.80;99.90
12225;DHT22;6175;50.956;11.064;2023-02-11T01:32:29;3.00;99.90
12225;DHT22;6175;50.956;11.064;2023-02-11T01:34:56;3.00;99.90
12225;DHT22;6175;50.956;11.064;2023-02-11T01:39:51;3.20;99.90
12225;DHT22;6175;50.956;11.064;2023-02-11T01:42:20;3.20;99.90
12225;DHT22;6175;50.956;11.064;2023-02-11T01:44:48;3.20;99.90
12225;DHT22;6175;50.956;11.064;2023-02-11T01:49:45;3.30;99.90
12225;DHT22;6175;50.956;11.064;2023-02-11T01:52:17;3.40;99.90
12225;DHT22;6175;50.956;11.064;2023-02-11T01:54:50;3.40;99.90
12225;DHT22;6175;50.956;11.064;2023-02-11T01:57:39;3.40;99.90
12225;DHT22;6175;50.956;11.064;2023-02-11T02:00:10;3.40;99.90
12225;DHT22;6175;50.956;11.064;2023-02-11T02:05:13;3.40;99.90
12225;DHT22;6175;50.956;11.064;2023-02-11T02:07:48;3.40;99.90
12225;DHT22;6175;50.956;11.064;2023-02-11T02:10:20;3.40;99.90
12225;DHT22;6175;50.956;11.064;2023-02-11T02:15:19;3.60;99.90
12225;DHT22;6175;50.956;11.064;2023-02-11T02:17:55;3.60;99.90
12225;DHT22;6175;50.956;11.064;2023-02-11T02:23:37;3.60;99.90
12225;DHT22;6175;50.956;11.064;2023-02-11T02:26:25;3.60;99.90
12225;DHT22;6175;50.956;11.064;2023-02-11T02:35:19;3.80;99.90
12225;DHT22;6175;50.956;11.064;2023-02-11T02:37:55;3.80;99.90
12225;DHT22;6175;50.956;11.064;2023-02-11T02:40:26;3.70;99.90
12225;DHT22;6175;50.956;11.064;2023-02-11T02:42:55;3.80;99.90
12225;DHT22;6175;50.956;11.064;2023-02-11T02:50:23;3.80;99.90
12225;DHT22;6175;50.956;11.064;2023-02-11T02:53:02;3.80;99.90
12225;DHT22;6175;50.956;11.064;2023-02-11T02:55:40;3.80;99.90
12225;DHT22;6175;50.956;11.064;2023-02-11T02:58:34;3.80;99.90
12225;DHT22;6175;50.956;11.064;2023-02-11T03:01:11;3.80;99.90
12225;DHT22;6175;50.956;11.064;2023-02-11T03:03:43;3.80;99.90
12225;DHT22;6175;50.956;11.064;2023-02-11T03:06:20;3.70;99.90
12225;DHT22;6175;50.956;11.064;2023-02-11T03:08:56;3.70;99.90
12225;DHT22;6175;50.956;11.064;2023-02-11T03:11:25;3.70;99.90
12225;DHT22;6175;50.956;11.064;2023-02-11T03:13:54;4.40;99.90
12225;DHT22;6175;50.956;11.064;2023-02-11T03:16:25;3.70;99.90
12225;DHT22;6175;50.956;11.064;2023-02-11T03:18:56;3.70;99.90
12225;DHT22;6175;50.956;11.064;2023-02-11T03:21:26;3.80;99.90
12225;DHT22;6175;50.956;11.064;2023-02-11T03:23:56;3.70;99.90
12225;DHT22;6175;50.956;11.064;2023-02-11T03:26:29;3.70;99.90
12225;DHT22;6175;50.956;11.064;2023-02-11T03:29:02;3.70;99.90
12225;DHT22;6175;50.956;11.064;2023-02-11T03:31:37;3.80;99.90
12225;DHT22;6175;50.956;11.064;2023-02-11T03:34:08;3.80;99.90
12225;DHT22;6175;50.956;11.064;2023-02-11T03:36:41;3.80;99.90
12225;DHT22;6175;50.956;11.064;2023-02-11T03:39:12;3.80;99.90
12225;DHT22;6175;50.956;11.064;2023-02-11T03:41:41;3.90;99.90
12225;DHT22;6175;50.956;11.064;2023-02-11T03:44:11;3.90;99.90
12225;DHT22;6175;50.956;11.064;2023-02-11T03:46:41;3.90;99.90
12225;DHT22;6175;50.956;11.064;2023-02-11T03:49:12;3.90;99.90
12225;DHT22;6175;50.956;11.064;2023-02-11T03:54:13;4.00;99.90
12225;DHT22;6175;50.956;11.064;2023-02-11T03:56:44;4.00;99.90
12225;DHT22;6175;50.956;11.064;2023-02-11T04:09:04;4.00;99.90
12225;DHT22;6175;50.956;11.064;2023-02-11T04:26:16;3.90;99.90
12225;DHT22;6175;50.956;11.064;2023-02-11T04:33:37;3.90;99.90
12225;DHT22;6175;50.956;11.064;2023-02-11T04:38:32;3.90;99.90
12225;DHT22;6175;50.956;11.064;2023-02-11T04:43:27;3.90;99.90
12225;DHT22;6175;50.956;11.064;2023-02-11T04:45:56;3.90;99.90
12225;DHT22;6175;50.956;11.064;2023-02-11T04:55:47;3.90;99.90
12225;DHT22;6175;50.956;11.064;2023-02-11T05:00:43;3.90;99.90
12225;DHT22;6175;50.956;11.064;2023-02-11T05:03:09;3.80;99.90
12225;DHT22;6175;50.956;11.064;2023-02-11T05:05:37;3.90;99.90
12225;DHT22;6175;50.956;11.064;2023-02-11T05:08:05;3.90;99.90
12225;DHT22;6175;50.956;11.064;2023-02-11T05:10:31;4.00;99.90
12225;DHT22;6175;50.956;11.064;2023-02-11T05:12:59;4.00;99.90
12225;DHT22;6175;50.956;11.064;2023-02-11T05:15:26;3.90;99.90
12225;DHT22;6175;50.956;11.064;2023-02-11T05:17:55;7.80;99.90
12225;DHT22;6175;50.956;11.064;2023-02-11T05:30:11;3.90;99.90
12225;DHT22;6175;50.956;11.064;2023-02-11T05:32:37;3.80;99.90
12225;DHT22;6175;50.956;11.064;2023-02-11T05:35:06;3.90;99.90
12225;DHT22;6175;50.956;11.064;2023-02-11T05:37:33;3.90;99.90
12225;DHT22;6175;50.956;11.064;2023-02-11T05:47:21;3.90;99.90
12225;DHT22;6175;50.956;11.064;2023-02-11T05:52:17;3.90;99.90
12225;DHT22;6175;50.956;11.064;2023-02-11T05:54:44;3.90;99.90
12225;DHT22;6175;50.956;11.064;2023-02-11T06:02:05;3.90;99.90
12225;DHT22;6175;50.956;11.064;2023-02-11T06:04:33;3.90;99.90
12225;DHT22;6175;50.956;11.064;2023-02-11T06:07:00;3.90;99.90
12225;DHT22;6175;50.956;11.064;2023-02-11T06:09:28;3.90;99.90
12225;DHT22;6175;50.956;11.064;2023-02-11T06:26:39;4.10;99.90
12225;DHT22;6175;50.956;11.064;2023-02-11T06:31:33;4.10;99.90
12225;DHT22;6175;50.956;11.064;2023-02-11T06:34:00;4.00;99.90
12225;DHT22;6175;50.956;11.064;2023-02-11T06:38:54;4.10;99.90
12225;DHT22;6175;50.956;11.064;2023-02-11T06:43:51;4.10;99.90
12225;DHT22;6175;50.956;11.064;2023-02-11T06:46:18;4.00;99.90
12225;DHT22;6175;50.956;11.064;2023-02-11T06:48:45;4.00;99.90
12225;DHT22;6175;50.956;11.064;2023-02-11T06:51:13;4.00;99.90
12225;DHT22;6175;50.956;11.064;2023-02-11T06:53:44;4.00;99.90
12225;DHT22;6175;50.956;11.064;2023-02-11T06:56:14;4.00;99.90
12225;DHT22;6175;50.956;11.064;2023-02-11T06:58:41;4.00;99.90
12225;DHT22;6175;50.956;11.064;2023-02-11T07:01:11;3.90;99.90
12225;DHT22;6175;50.956;11.064;2023-02-11T07:03:40;4.00;99.90
12225;DHT22;6175;50.956;11.064;2023-02-11T07:06:11;4.00;99.90
12225;DHT22;6175;50.956;11.064;2023-02-11T07:08:39;4.00;99.90
12225;DHT22;6175;50.956;11.064;2023-02-11T07:11:08;4.00;99.90
12225;DHT22;6175;50.956;11.064;2023-02-11T07:18:32;4.10;99.90
12225;DHT22;6175;50.956;11.064;2023-02-11T07:35:43;4.10;99.90
12225;DHT22;6175;50.956;11.064;2023-02-11T07:45:31;4.10;99.90
12225;DHT22;6175;50.956;11.064;2023-02-11T08:07:37;4.20;99.90
12225;DHT22;6175;50.956;11.064;2023-02-11T08:22:21;4.30;99.90
12225;DHT22;6175;50.956;11.064;2023-02-11T08:32:11;4.40;99.90
12225;DHT22;6175;50.956;11.064;2023-02-11T08:56:50;4.50;99.90
12225;DHT22;6175;50.956;11.064;2023-02-11T09:01:46;4.60;99.90
12225;DHT22;6175;50.956;11.064;2023-02-11T09:09:10;4.60;99.90
12225;DHT22;6175;50.956;11.064;2023-02-11T09:11:38;4.60;99.90
12225;DHT22;6175;50.956;11.064;2023-02-11T09:14:06;4.60;99.90
12225;DHT22;6175;50.956;11.064;2023-02-11T09:16:34;4.70;99.90
12225;DHT22;6175;50.956;11.064;2023-02-11T09:19:03;4.70;99.90
12225;DHT22;6175;50.956;11.064;2023-02-11T09:26:26;4.90;99.90
12225;DHT22;6175;50.956;11.064;2023-02-11T09:31:22;5.10;99.90
12225;DHT22;6175;50.956;11.064;2023-02-11T09:33:51;5.20;99.90
12225;DHT22;6175;50.956;11.064;2023-02-11T09:36:22;5.40;99.90
12225;DHT22;6175;50.956;11.064;2023-02-11T09:41:30;5.60;99.90
12225;DHT22;6175;50.956;11.064;2023-02-11T09:44:01;5.60;99.90
12225;DHT22;6175;50.956;11.064;2023-02-11T09:46:32;8.30;99.90
12225;DHT22;6175;50.956;11.064;2023-02-11T09:49:01;5.80;99.90
12225;DHT22;6175;50.956;11.064;2023-02-11T09:51:35;5.70;99.90
12225;DHT22;6175;50.956;11.064;2023-02-11T09:54:10;5.70;99.90
12225;DHT22;6175;50.956;11.064;2023-02-11T09:59:09;5.60;99.90
12225;DHT22;6175;50.956;11.064;2023-02-11T10:01:40;5.70;99.90
12225;DHT22;6175;50.956;11.064;2023-02-11T10:04:15;5.80;99.90
12225;DHT22;6175;50.956;11.064;2023-02-11T10:09:39;6.10;99.90
12225;DHT22;6175;50.956;11.064;2023-02-11T10:12:19;6.20;99.90
12225;DHT22;6175;50.956;11.064;2023-02-11T10:15:07;6.30;99.90
12225;DHT22;6175;50.956;11.064;2023-02-11T10:17:48;6.40;99.90
12225;DHT22;6175;50.956;11.064;2023-02-11T10:20:26;6.40;99.90
12225;DHT22;6175;50.956;11.064;2023-02-11T10:22:58;6.40;99.90
12225;DHT22;6175;50.956;11.064;2023-02-11T10:25:32;7.10;99.90
12225;DHT22;6175;50.956;11.064;2023-02-11T10:28:10;6.60;99.90
12225;DHT22;6175;50.956;11.064;2023-02-11T10:30:41;6.80;99.90
12225;DHT22;6175;50.956;11.064;2023-02-11T10:33:14;6.80;99.90
12225;DHT22;6175;50.956;11.064;2023-02-11T10:35:46;6.80;99.90
12225;DHT22;6175;50.956;11.064;2023-02-11T10:38:14;6.80;99.90
12225;DHT22;6175;50.956;11.064;2023-02-11T10:43:11;6.80;99.90
12225;DHT22;6175;50.956;11.064;2023-02-11T10:45:42;6.80;99.90
12225;DHT22;6175;50.956;11.064;2023-02-11T10:48:38;6.80;99.90
12225;DHT22;6175;50.956;11.064;2023-02-11T10:51:16;6.90;99.90
12225;DHT22;6175;50.956;11.064;2023-02-11T10:53:45;6.90;99.90
12225;DHT22;6175;50.956;11.064;2023-02-11T10:56:20;6.90;99.90
12225;DHT22;6175;50.956;11.064;2023-02-11T10:58:55;7.00;99.90
12225;DHT22;6175;50.956;11.064;2023-02-11T11:01:35;7.10;99.90
12225;DHT22;6175;50.956;11.064;2023-02-11T11:04:02;7.20;99.90
12225;DHT22;6175;50.956;11.064;2023-02-11T11:06:30;8.20;99.90
12225;DHT22;6175;50.956;11.064;2023-02-11T11:08:59;7.00;99.90
12225;DHT22;6175;50.956;11.064;2023-02-11T11:16:24;7.00;99.90
12225;DHT22;6175;50.956;11.064;2023-02-11T11:18:52;7.00;99.90
12225;DHT22;6175;50.956;11.064;2023-02-11T11:21:22;7.10;99.90
12225;DHT22;6175;50.956;11.064;2023-02-11T11:23:53;7.10;99.90
12225;DHT22;6175;50.956;11.064;2023-02-11T11:26:22;6.60;99.90
12225;DHT22;6175;50.956;11.064;2023-02-11T11:28:53;7.30;99.90
12225;DHT22;6175;50.956;11.064;2023-02-11T11:31:23;7.30;99.90
12225;DHT22;6175;50.956;11.064;2023-02-11T11:33:54;7.50;99.90
12225;DHT22;6175;50.956;11.064;2023-02-11T11:36:23;7.60;99.90
12225;DHT22;6175;50.956;11.064;2023-02-11T11:38:58;7.70;99.90
12225;DHT22;6175;50.956;11.064;2023-02-11T11:41:28;7.70;99.90
12225;DHT22;6175;50.956;11.064;2023-02-11T11:43:58;7.70;99.90
12225;DHT22;6175;50.956;11.064;2023-02-11T11:46:29;7.60;99.90
12225;DHT22;6175;50.956;11.064;2023-02-11T11:49:04;7.60;99.90
12225;DHT22;6175;50.956;11.064;2023-02-11T11:51:34;7.50;99.90
12225;DHT22;6175;50.956;11.064;2023-02-11T11:54:05;7.50;99.90
12225;DHT22;6175;50.956;11.064;2023-02-11T11:56:39;10.50;99.90
12225;DHT22;6175;50.956;11.064;2023-02-11T11:59:10;7.60;99.90
12225;DHT22;6175;50.956;11.064;2023-02-11T12:01:46;7.60;99.90
12225;DHT22;6175;50.956;11.064;2023-02-11T12:04:27;7.70;99.90
12225;DHT22;6175;50.956;11.064;2023-02-11T12:07:13;7.70;99.90
12225;DHT22;6175;50.956;11.064;2023-02-11T12:09:51;7.70;99.90
12225;DHT22;6175;50.956;11.064;2023-02-11T12:12:30;7.80;99.90
12225;DHT22;6175;50.956;11.064;2023-02-11T12:15:12;7.70;99.90
12225;DHT22;6175;50.956;11.064;2023-02-11T12:17:59;7.70;99.90
12225;DHT22;6175;50.956;11.064;2023-02-11T12:20:35;7.70;99.90
12225;DHT22;6175;50.956;11.064;2023-02-11T12:23:20;7.70;99.90
12225;DHT22;6175;50.956;11.064;2023-02-11T12:25:54;7.70;99.90
12225;DHT22;6175;50.956;11.064;2023-02-11T12:28:36;7.70;99.90
12225;DHT22;6175;50.956;11.064;2023-02-11T12:31:18;7.70;99.90
12225;DHT22;6175;50.956;11.064;2023-02-11T12:34:13;7.60;99.90
12225;DHT22;6175;50.956;11.064;2023-02-11T12:36:54;7.50;99.90
12225;DHT22;6175;50.956;11.064;2023-02-11T12:39:36;7.50;99.90
12225;DHT22;6175;50.956;11.064;2023-02-11T12:42:33;7.50;99.90
12225;DHT22;6175;50.956;11.064;2023-02-11T12:45:32;7.50;99.90
12225;DHT22;6175;50.956;11.064;2023-02-11T12:48:11;7.40;99.90
12225;DHT22;6175;50.956;11.064;2023-02-11T12:50:52;7.40;99.90
12225;DHT22;6175;50.956;11.064;2023-02-11T12:53:42;7.40;99.90
12225;DHT22;6175;50.956;11.064;2023-02-11T12:56:15;7.40;99.90
12225;DHT22;6175;50.956;11.064;2023-02-11T12:58:45;7.40;99.90
12225;DHT22;6175;50.956;11.064;2023-02-11T13:01:19;7.40;99.90
12225;DHT22;6175;50.956;11.064;2023-02-11T13:03:49;7.40;99.90
12225;DHT22;6175;50.956;11.064;2023-02-11T13:06:19;7.40;99.90
12225;DHT22;6175;50.956;11.064;2023-02-11T13:08:50;7.40;99.90
12225;DHT22;6175;50.956;11.064;2023-02-11T13:11:21;7.40;99.90
12225;DHT22;6175;50.956;11.064;2023-02-11T13:13:53;7.40;99.90
12225;DHT22;6175;50.956;11.064;2023-02-11T13:16:32;7.40;99.90
12225;DHT22;6175;50.956;11.064;2023-02-11T13:21:56;7.40;99.90
12225;DHT22;6175;50.956;11.064;2023-02-11T13:24:30;7.40;99.90
12225;DHT22;6175;50.956;11.064;2023-02-11T13:27:07;7.40;99.90
12225;DHT22;6175;50.956;11.064;2023-02-11T13:29:49;7.40;99.90
12225;DHT22;6175;50.956;11.064;2023-02-11T13:33:05;7.40;99.90
12225;DHT22;6175;50.956;11.064;2023-02-11T13:35:42;7.40;99.90
12225;DHT22;6175;50.956;11.064;2023-02-11T13:38:18;7.40;99.90
12225;DHT22;6175;50.956;11.064;2023-02-11T13:40:59;9.40;99.90
12225;DHT22;6175;50.956;11.064;2023-02-11T13:43:28;7.30;99.90
12225;DHT22;6175;50.956;11.064;2023-02-11T13:45:58;7.30;99.90
12225;DHT22;6175;50.956;11.064;2023-02-11T13:48:28;7.30;99.90
12225;DHT22;6175;50.956;11.064;2023-02-11T13:50:59;7.30;99.90
12225;DHT22;6175;50.956;11.064;2023-02-11T13:53:27;7.30;99.90
12225;DHT22;6175;50.956;11.064;2023-02-11T13:56:05;7.30;99.90
12225;DHT22;6175;50.956;11.064;2023-02-11T13:58:35;7.20;99.90
12225;DHT22;6175;50.956;11.064;2023-02-11T14:06:22;7.20;99.90
12225;DHT22;6175;50.956;11.064;2023-02-11T14:09:33;7.10;99.90
12225;DHT22;6175;50.956;11.064;2023-02-11T14:15:21;7.10;99.90
12225;DHT22;6175;50.956;11.064;2023-02-11T14:20:40;7.00;99.90
12225;DHT22;6175;50.956;11.064;2023-02-11T14:23:25;6.90;99.90
12225;DHT22;6175;50.956;11.064;2023-02-11T14:26:06;7.00;99.90
12225;DHT22;6175;50.956;11.064;2023-02-11T14:28:37;7.00;99.90
12225;DHT22;6175;50.956;11.064;2023-02-11T14:31:09;7.00;99.90
12225;DHT22;6175;50.956;11.064;2023-02-11T14:34:02;7.00;99.90
12225;DHT22;6175;50.956;11.064;2023-02-11T14:36:56;7.00;99.90
12225;DHT22;6175;50.956;11.064;2023-02-11T14:39:38;6.90;99.90
12225;DHT22;6175;50.956;11.064;2023-02-11T14:42:15;7.00;99.90
12225;DHT22;6175;50.956;11.064;2023-02-11T14:44:44;7.00;99.90
12225;DHT22;6175;50.956;11.064;2023-02-11T14:47:17;7.00;99.90
12225;DHT22;6175;50.956;11.064;2023-02-11T14:52:23;7.00;99.90
12225;DHT22;6175;50.956;11.064;2023-02-11T14:54:59;6.90;99.90
12225;DHT22;6175;50.956;11.064;2023-02-11T14:59:57;6.90;99.90
12225;DHT22;6175;50.956;11.064;2023-02-11T15:02:29;6.90;99.90
12225;DHT22;6175;50.956;11.064;2023-02-11T15:05:19;6.80;99.90
12225;DHT22;6175;50.956;11.064;2023-02-11T15:07:50;6.80;99.90
12225;DHT22;6175;50.956;11.064;2023-02-11T15:10:27;6.80;99.90
12225;DHT22;6175;50.956;11.064;2023-02-11T15:12:57;6.70;99.90
12225;DHT22;6175;50.956;11.064;2023-02-11T15:15:25;6.70;99.90
12225;DHT22;6175;50.956;11.064;2023-02-11T15:17:52;6.60;99.90
12225;DHT22;6175;50.956;11.064;2023-02-11T15:20:23;6.70;99.90
12225;DHT22;6175;50.956;11.064;2023-02-11T15:22:55;6.60;99.90
12225;DHT22;6175;50.956;11.064;2023-02-11T15:25:23;6.60;99.90
12225;DHT22;6175;50.956;11.064;2023-02-11T15:27:53;6.60;99.90
12225;DHT22;6175;50.956;11.064;2023-02-11T15:30:26;6.60;99.90
12225;DHT22;6175;50.956;11.064;2023-02-11T15:32:55;6.60;99.90
12225;DHT22;6175;50.956;11.064;2023-02-11T15:35:25;6.60;99.90
12225;DHT22;6175;50.956;11.064;2023-02-11T15:37:54;6.60;99.90
12225;DHT22;6175;50.956;11.064;2023-02-11T15:40:23;6.50;99.90
12225;DHT22;6175;50.956;11.064;2023-02-11T15:42:56;6.50;99.90
12225;DHT22;6175;50.956;11.064;2023-02-11T15:45:25;6.40;99.90
12225;DHT22;6175;50.956;11.064;2023-02-11T15:47:58;6.40;99.90
12225;DHT22;6175;50.956;11.064;2023-02-11T15:50:27;6.40;99.90
12225;DHT22;6175;50.956;11.064;2023-02-11T15:52:59;6.40;99.90
12225;DHT22;6175;50.956;11.064;2023-02-11T15:55:29;6.40;99.90
12225;DHT22;6175;50.956;11.064;2023-02-11T15:57:57;6.40;99.90
12225;DHT22;6175;50.956;11.064;2023-02-11T16:00:31;6.30;99.90
12225;DHT22;6175;50.956;11.064;2023-02-11T16:02:59;6.30;99.90
12225;DHT22;6175;50.956;11.064;2023-02-11T16:05:31;6.30;99.90
12225;DHT22;6175;50.956;11.064;2023-02-11T16:08:12;6.30;99.90
12225;DHT22;6175;50.956;11.064;2023-02-11T16:13:17;6.30;99.90
12225;DHT22;6175;50.956;11.064;2023-02-11T16:15:48;6.20;99.90
12225;DHT22;6175;50.956;11.064;2023-02-11T16:18:35;6.20;99.90
12225;DHT22;6175;50.956;11.064;2023-02-11T16:21:04;6.30;99.90
12225;DHT22;6175;50.956;11.064;2023-02-11T16:23:34;6.20;99.90
12225;DHT22;6175;50.956;11.064;2023-02-11T16:26:05;6.20;99.90
12225;DHT22;6175;50.956;11.064;2023-02-11T16:28:34;6.20;99.90
12225;DHT22;6175;50.956;11.064;2023-02-11T16:31:03;5.60;99.90
12225;DHT22;6175;50.956;11.064;2023-02-11T16:33:30;6.20;99.90
12225;DHT22;6175;50.956;11.064;2023-02-11T16:40:55;6.10;99.90
12225;DHT22;6175;50.956;11.064;2023-02-11T16:43:21;6.10;99.90
12225;DHT22;6175;50.956;11.064;2023-02-11T16:48:17;6.10;99.90
12225;DHT22;6175;50.956;11.064;2023-02-11T16:50:46;6.10;99.90
12225;DHT22;6175;50.956;11.064;2023-02-11T16:53:17;6.10;99.90
12225;DHT22;6175;50.956;11.064;2023-02-11T16:58:13;5.90;99.90
12225;DHT22;6175;50.956;11.064;2023-02-11T17:03:13;6.10;99.90
12225;DHT22;6175;50.956;11.064;2023-02-11T17:05:42;6.00;99.90
12225;DHT22;6175;50.956;11.064;2023-02-11T17:08:10;5.90;99.90
12225;DHT22;6175;50.956;11.064;2023-02-11T17:15:33;6.00;99.90
12225;DHT22;6175;50.956;11.064;2023-02-11T17:20:27;6.00;99.90
12225;DHT22;6175;50.956;11.064;2023-02-11T17:37:40;5.90;99.90
12225;DHT22;6175;50.956;11.064;2023-02-11T17:42:34;5.80;99.90
12225;DHT22;6175;50.956;11.064;2023-02-11T17:45:01;5.90;99.90
12225;DHT22;6175;50.956;11.064;2023-02-11T17:47:28;5.90;99.90
12225;DHT22;6175;50.956;11.064;2023-02-11T17:49:57;5.80;99.90
12225;DHT22;6175;50.956;11.064;2023-02-11T17:54:53;5.80;99.90
12225;DHT22;6175;50.956;11.064;2023-02-11T18:07:10;5.80;99.90
12225;DHT22;6175;50.956;11.064;2023-02-11T18:09:37;5.80;99.90
12225;DHT22;6175;50.956;11.064;2023-02-11T18:12:05;5.80;99.90
12225;DHT22;6175;50.956;11.064;2023-02-11T18:14:33;5.80;99.90
12225;DHT22;6175;50.956;11.064;2023-02-11T18:17:00;5.80;99.90
12225;DHT22;6175;50.956;11.064;2023-02-11T18:24:26;5.80;99.90
12225;DHT22;6175;50.956;11.064;2023-02-11T18:26:53;5.80;99.90
12225;DHT22;6175;50.956;11.064;2023-02-11T18:41:37;5.70;99.90
12225;DHT22;6175;50.956;11.064;2023-02-11T18:58:53;5.80;99.90
12225;DHT22;6175;50.956;11.064;2023-02-11T19:01:22;5.70;99.90
12225;DHT22;6175;50.956;11.064;2023-02-11T19:06:19;5.80;99.90
12225;DHT22;6175;50.956;11.064;2023-02-11T19:08:47;5.80;99.90
12225;DHT22;6175;50.956;11.064;2023-02-11T19:16:13;7.20;99.90
12225;DHT22;6175;50.956;11.064;2023-02-11T19:21:10;5.70;99.90
12225;DHT22;6175;50.956;11.064;2023-02-11T19:23:37;5.60;99.90
12225;DHT22;6175;50.956;11.064;2023-02-11T19:31:05;5.70;99.90
12225;DHT22;6175;50.956;11.064;2023-02-11T19:33:33;5.70;99.90
12225;DHT22;6175;50.956;11.064;2023-02-11T19:36:04;5.70;99.90
12225;DHT22;6175;50.956;11.064;2023-02-11T19:38:31;5.70;99.90
12225;DHT22;6175;50.956;11.064;2023-02-11T19:43:25;5.70;99.90
12225;DHT22;6175;50.956;11.064;2023-02-11T19:58:10;5.70;99.90
12225;DHT22;6175;50.956;11.064;2023-02-11T20:03:04;5.70;99.90
12225;DHT22;6175;50.956;11.064;2023-02-11T20:08:00;5.70;99.90
12225;DHT22;6175;50.956;11.064;2023-02-11T20:10:27;5.50;99.90
12225;DHT22;6175;50.956;11.064;2023-02-11T20:22:43;5.60;99.90
12225;DHT22;6175;50.956;11.064;2023-02-11T20:52:14;5.70;99.90
12225;DHT22;6175;50.956;11.064;2023-02-11T20:59:37;5.70;99.90
12225;DHT22;6175;50.956;11.064;2023-02-11T21:07:00;5.70;99.90
12225;DHT22;6175;50.956;11.064;2023-02-11T21:09:29;5.70;99.90
12225;DHT22;6175;50.956;11.064;2023-02-11T21:11:56;5.70;99.90
12225;DHT22;6175;50.956;11.064;2023-02-11T21:14:24;5.70;99.90
12225;DHT22;6175;50.956;11.064;2023-02-11T21:16:52;5.80;99.90
12225;DHT22;6175;50.956;11.064;2023-02-11T21:19:19;5.80;99.90
12225;DHT22;6175;50.956;11.064;2023-02-11T21:21:46;5.80;99.90
12225;DHT22;6175;50.956;11.064;2023-02-11T21:34:05;5.70;99.90
12225;DHT22;6175;50.956;11.064;2023-02-11T21:38:59;5.70;99.90
12225;DHT22;6175;50.956;11.064;2023-02-11T21:41:28;5.70;99.90
12225;DHT22;6175;50.956;11.064;2023-02-11T21:43:55;3.90;99.90
12225;DHT22;6175;50.956;11.064;2023-02-11T21:46:22;5.70;99.90
12225;DHT22;6175;50.956;11.064;2023-02-11T21:51:20;5.70;99.90
12225;DHT22;6175;50.956;11.064;2023-02-11T21:53:52;5.70;99.90
12225;DHT22;6175;50.956;11.064;2023-02-11T21:58:49;5.60;99.90
12225;DHT22;6175;50.956;11.064;2023-02-11T22:01:19;5.70;99.90
12225;DHT22;6175;50.956;11.064;2023-02-11T22:06:15;5.70;99.90
12225;DHT22;6175;50.956;11.064;2023-02-11T22:08:44;5.70;99.90
12225;DHT22;6175;50.956;11.064;2023-02-11T22:11:11;5.70;99.90
12225;DHT22;6175;50.956;11.064;2023-02-11T22:13:39;5.70;99.90
12225;DHT22;6175;50.956;11.064;2023-02-11T22:16:08;5.70;99.90
12225;DHT22;6175;50.956;11.064;2023-02-11T22:21:05;5.60;99.90
12225;DHT22;6175;50.956;11.064;2023-02-11T22:23:33;5.70;99.90
12225;DHT22;6175;50.956;11.064;2023-02-11T22:26:05;5.70;99.90
12225;DHT22;6175;50.956;11.064;2023-02-11T22:33:27;5.70;99.90
12225;DHT22;6175;50.956;11.064;2023-02-11T22:35:57;5.70;99.90
12225;DHT22;6175;50.956;11.064;2023-02-11T22:38:24;5.70;99.90
12225;DHT22;6175;50.956;11.064;2023-02-11T22:48:15;5.70;99.90
12225;DHT22;6175;50.956;11.064;2023-02-11T22:50:43;5.70;99.90
12225;DHT22;6175;50.956;11.064;2023-02-11T22:58:05;5.70;99.90
12225;DHT22;6175;50.956;11.064;2023-02-11T23:00:37;5.70;99.90
12225;DHT22;6175;50.956;11.064;2023-02-11T23:03:06;5.70;99.90
12225;DHT22;6175;50.956;11.064;2023-02-11T23:05:36;5.70;99.90
12225;DHT22;6175;50.956;11.064;2023-02-11T23:08:04;5.70;99.90
12225;DHT22;6175;50.956;11.064;2023-02-11T23:10:33;5.80;99.90
12225;DHT22;6175;50.956;11.064;2023-02-11T23:17:56;5.70;99.90
12225;DHT22;6175;50.956;11.064;2023-02-11T23:20:23;5.80;99.90
12225;DHT22;6175;50.956;11.064;2023-02-11T23:30:12;5.80;99.90
12225;DHT22;6175;50.956;11.064;2023-02-11T23:35:08;5.80;99.90
12225;DHT22;6175;50.956;11.064;2023-02-11T23:37:34;5.80;99.90
12225;DHT22;6175;50.956;11.064;2023-02-11T23:42:28;5.70;99.90
12225;DHT22;6175;50.956;11.064;2023-02-11T23:52:18;5.70;99.90
12225;DHT22;6175;50.956;11.064;2023-02-11T23:57:12;5.70;99.90
12225;DHT22;6175;50.956;11.064;2023-02-11T23:59:39;5.70;99.90
